sensor_id;sensor_type;location;lat;lon;timestamp;pressure;altitude;pressure_sealevel;temperature;humidity
47080;BME280;33067;49.296;14.470;2022-08-21T00:00:10;96853.83;;;22.69;44.20
47080;BME280;33067;49.296;14.470;2022-08-21T00:02:32;96857.73;;;22.72;44.18
47080;BME280;33067;49.296;14.470;2022-08-21T00:04:57;96858.93;;;22.75;44.29
47080;BME280;33067;49.296;14.470;2022-08-21T00:07:22;96860.26;;;22.48;44.37
47080;BME280;33067;49.296;14.470;2022-08-21T00:09:48;96861.96;;;22.57;44.76
47080;BME280;33067;49.296;14.470;2022-08-21T00:12:13;96863.97;;;22.19;44.69
47080;BME280;33067;49.296;14.470;2022-08-21T00:14:39;96863.46;;;22.60;44.76
47080;BME280;33067;49.296;14.470;2022-08-21T00:17:05;96864.05;;;22.48;44.86
47080;BME280;33067;49.296;14.470;2022-08-21T00:19:30;96860.90;;;22.20;45.06
47080;BME280;33067;49.296;14.470;2022-08-21T00:21:56;96862.83;;;22.75;44.87
47080;BME280;33067;49.296;14.470;2022-08-21T00:24:21;96862.93;;;22.45;45.09
47080;BME280;33067;49.296;14.470;2022-08-21T00:26:46;96860.62;;;22.25;44.93
47080;BME280;33067;49.296;14.470;2022-08-21T00:29:12;96859.46;;;22.65;44.90
47080;BME280;33067;49.296;14.470;2022-08-21T00:31:37;96854.00;;;22.88;44.77
47080;BME280;33067;49.296;14.470;2022-08-21T00:34:02;96854.64;;;22.71;44.62
47080;BME280;33067;49.296;14.470;2022-08-21T00:36:27;96856.63;;;23.04;44.60
47080;BME280;33067;49.296;14.470;2022-08-21T00:38:52;96859.74;;;23.13;44.57
47080;BME280;33067;49.296;14.470;2022-08-21T00:41:18;96861.56;;;22.67;44.55
47080;BME280;33067;49.296;14.470;2022-08-21T00:43:43;96864.58;;;22.87;44.34
47080;BME280;33067;49.296;14.470;2022-08-21T00:46:09;96862.03;;;22.90;44.36
47080;BME280;33067;49.296;14.470;2022-08-21T00:48:34;96859.31;;;22.95;44.50
47080;BME280;33067;49.296;14.470;2022-08-21T00:51:05;96860.76;;;23.24;44.47
47080;BME280;33067;49.296;14.470;2022-08-21T00:53:27;96856.51;;;22.81;44.34
47080;BME280;33067;49.296;14.470;2022-08-21T00:55:52;96858.63;;;22.96;44.59
47080;BME280;33067;49.296;14.470;2022-08-21T00:58:17;96854.38;;;23.07;44.42
47080;BME280;33067;49.296;14.470;2022-08-21T01:00:44;96854.51;;;22.88;44.45
47080;BME280;33067;49.296;14.470;2022-08-21T01:03:11;96854.12;;;22.93;44.37
47080;BME280;33067;49.296;14.470;2022-08-21T01:05:33;96854.67;;;22.89;44.45
47080;BME280;33067;49.296;14.470;2022-08-21T01:07:57;96853.07;;;22.88;44.53
47080;BME280;33067;49.296;14.470;2022-08-21T01:10:23;96852.29;;;22.95;44.12
47080;BME280;33067;49.296;14.470;2022-08-21T01:12:47;96850.48;;;22.99;44.25
47080;BME280;33067;49.296;14.470;2022-08-21T01:15:14;96851.93;;;22.84;44.38
47080;BME280;33067;49.296;14.470;2022-08-21T01:17:38;96847.06;;;23.07;44.28
47080;BME280;33067;49.296;14.470;2022-08-21T01:20:07;96845.30;;;23.36;44.49
47080;BME280;33067;49.296;14.470;2022-08-21T01:22:29;96842.36;;;22.82;44.55
47080;BME280;33067;49.296;14.470;2022-08-21T01:24:55;96842.09;;;23.10;44.39
47080;BME280;33067;49.296;14.470;2022-08-21T01:27:20;96841.77;;;23.14;44.45
47080;BME280;33067;49.296;14.470;2022-08-21T01:29:50;96839.27;;;22.93;44.54
47080;BME280;33067;49.296;14.470;2022-08-21T01:32:15;96838.53;;;23.17;44.31
47080;BME280;33067;49.296;14.470;2022-08-21T01:34:39;96836.65;;;23.17;44.29
47080;BME280;33067;49.296;14.470;2022-08-21T01:37:02;96835.99;;;23.17;44.19
47080;BME280;33067;49.296;14.470;2022-08-21T01:39:27;96836.03;;;23.10;44.33
47080;BME280;33067;49.296;14.470;2022-08-21T01:41:52;96836.18;;;22.92;44.33
47080;BME280;33067;49.296;14.470;2022-08-21T01:44:20;96836.50;;;23.22;44.20
47080;BME280;33067;49.296;14.470;2022-08-21T01:46:43;96832.65;;;22.93;44.20
47080;BME280;33067;49.296;14.470;2022-08-21T01:49:08;96830.01;;;23.20;44.31
47080;BME280;33067;49.296;14.470;2022-08-21T01:51:33;96826.62;;;23.18;44.21
47080;BME280;33067;49.296;14.470;2022-08-21T01:53:58;96825.32;;;23.13;44.22
47080;BME280;33067;49.296;14.470;2022-08-21T01:56:24;96828.10;;;23.39;44.21
47080;BME280;33067;49.296;14.470;2022-08-21T01:58:49;96827.67;;;22.90;44.39
47080;BME280;33067;49.296;14.470;2022-08-21T02:01:14;96822.79;;;23.20;44.28
47080;BME280;33067;49.296;14.470;2022-08-21T02:03:39;96823.09;;;23.42;44.31
47080;BME280;33067;49.296;14.470;2022-08-21T02:06:05;96819.56;;;23.23;44.40
47080;BME280;33067;49.296;14.470;2022-08-21T02:08:30;96815.21;;;23.02;44.25
47080;BME280;33067;49.296;14.470;2022-08-21T02:13:00;96812.62;;;23.48;43.79
47080;BME280;33067;49.296;14.470;2022-08-21T02:15:27;96809.02;;;23.20;44.53
47080;BME280;33067;49.296;14.470;2022-08-21T02:17:54;96809.10;;;23.16;45.13
47080;BME280;33067;49.296;14.470;2022-08-21T02:20:18;96807.47;;;22.67;45.64
47080;BME280;33067;49.296;14.470;2022-08-21T02:22:41;96807.90;;;22.47;45.75
47080;BME280;33067;49.296;14.470;2022-08-21T02:25:07;96806.93;;;22.86;46.15
47080;BME280;33067;49.296;14.470;2022-08-21T02:27:38;96803.86;;;22.76;46.06
47080;BME280;33067;49.296;14.470;2022-08-21T02:29:59;96802.59;;;22.65;46.18
47080;BME280;33067;49.296;14.470;2022-08-21T02:32:24;96801.58;;;22.60;46.42
47080;BME280;33067;49.296;14.470;2022-08-21T02:34:49;96802.59;;;22.32;46.38
47080;BME280;33067;49.296;14.470;2022-08-21T02:37:14;96799.93;;;22.55;46.36
47080;BME280;33067;49.296;14.470;2022-08-21T02:39:39;96797.47;;;22.14;46.61
47080;BME280;33067;49.296;14.470;2022-08-21T02:42:05;96794.84;;;22.62;46.76
47080;BME280;33067;49.296;14.470;2022-08-21T02:44:30;96795.72;;;22.32;46.83
47080;BME280;33067;49.296;14.470;2022-08-21T02:46:56;96796.99;;;22.31;46.74
47080;BME280;33067;49.296;14.470;2022-08-21T02:49:21;96796.94;;;22.22;46.88
47080;BME280;33067;49.296;14.470;2022-08-21T02:51:47;96794.90;;;22.19;47.04
47080;BME280;33067;49.296;14.470;2022-08-21T02:54:12;96794.37;;;22.18;47.26
47080;BME280;33067;49.296;14.470;2022-08-21T02:56:38;96793.78;;;22.17;47.27
47080;BME280;33067;49.296;14.470;2022-08-21T02:59:03;96794.05;;;21.97;47.24
47080;BME280;33067;49.296;14.470;2022-08-21T03:01:28;96796.36;;;22.17;47.35
47080;BME280;33067;49.296;14.470;2022-08-21T03:03:54;96792.11;;;22.15;47.14
47080;BME280;33067;49.296;14.470;2022-08-21T03:06:21;96793.68;;;22.10;47.09
47080;BME280;33067;49.296;14.470;2022-08-21T03:08:46;96795.73;;;22.32;46.98
47080;BME280;33067;49.296;14.470;2022-08-21T03:11:11;96798.16;;;22.22;47.11
47080;BME280;33067;49.296;14.470;2022-08-21T03:13:36;96800.56;;;21.95;47.56
47080;BME280;33067;49.296;14.470;2022-08-21T03:16:01;96799.95;;;21.93;47.54
47080;BME280;33067;49.296;14.470;2022-08-21T03:18:27;96799.80;;;21.96;47.66
47080;BME280;33067;49.296;14.470;2022-08-21T03:20:52;96799.98;;;22.01;47.49
47080;BME280;33067;49.296;14.470;2022-08-21T03:23:18;96801.94;;;22.02;47.32
47080;BME280;33067;49.296;14.470;2022-08-21T03:25:45;96802.66;;;21.98;47.51
47080;BME280;33067;49.296;14.470;2022-08-21T03:28:11;96803.90;;;22.07;47.45
47080;BME280;33067;49.296;14.470;2022-08-21T03:30:33;96802.98;;;22.07;47.33
47080;BME280;33067;49.296;14.470;2022-08-21T03:32:59;96804.17;;;22.09;47.50
47080;BME280;33067;49.296;14.470;2022-08-21T03:35:23;96802.44;;;22.12;47.47
47080;BME280;33067;49.296;14.470;2022-08-21T03:37:49;96802.99;;;22.13;47.39
47080;BME280;33067;49.296;14.470;2022-08-21T03:40:16;96803.56;;;22.12;47.51
47080;BME280;33067;49.296;14.470;2022-08-21T03:42:40;96806.74;;;22.10;47.27
47080;BME280;33067;49.296;14.470;2022-08-21T03:45:06;96808.23;;;22.07;47.59
47080;BME280;33067;49.296;14.470;2022-08-21T03:47:30;96808.90;;;22.17;47.35
47080;BME280;33067;49.296;14.470;2022-08-21T03:49:56;96809.13;;;22.19;47.48
47080;BME280;33067;49.296;14.470;2022-08-21T03:52:21;96811.87;;;22.16;47.22
47080;BME280;33067;49.296;14.470;2022-08-21T03:54:47;96810.94;;;22.18;47.15
47080;BME280;33067;49.296;14.470;2022-08-21T03:57:12;96811.12;;;22.20;47.25
47080;BME280;33067;49.296;14.470;2022-08-21T03:59:38;96810.04;;;22.15;47.28
47080;BME280;33067;49.296;14.470;2022-08-21T04:02:05;96811.74;;;22.00;47.00
47080;BME280;33067;49.296;14.470;2022-08-21T04:04:31;96811.97;;;22.23;47.21
47080;BME280;33067;49.296;14.470;2022-08-21T04:06:54;96811.74;;;22.28;47.00
47080;BME280;33067;49.296;14.470;2022-08-21T04:09:20;96812.10;;;22.23;47.01
47080;BME280;33067;49.296;14.470;2022-08-21T04:11:46;96813.95;;;22.25;46.98
47080;BME280;33067;49.296;14.470;2022-08-21T04:14:11;96814.76;;;22.22;47.14
47080;BME280;33067;49.296;14.470;2022-08-21T04:16:36;96814.89;;;22.09;47.02
47080;BME280;33067;49.296;14.470;2022-08-21T04:19:01;96818.01;;;22.10;46.70
47080;BME280;33067;49.296;14.470;2022-08-21T04:21:27;96823.53;;;22.30;46.23
47080;BME280;33067;49.296;14.470;2022-08-21T04:23:54;96825.08;;;22.62;45.69
47080;BME280;33067;49.296;14.470;2022-08-21T04:26:18;96822.54;;;22.75;45.54
47080;BME280;33067;49.296;14.470;2022-08-21T04:28:43;96817.11;;;22.63;45.32
47080;BME280;33067;49.296;14.470;2022-08-21T04:31:09;96819.56;;;22.50;44.96
47080;BME280;33067;49.296;14.470;2022-08-21T04:33:34;96818.89;;;23.03;45.05
47080;BME280;33067;49.296;14.470;2022-08-21T04:35:59;96821.15;;;23.11;45.01
47080;BME280;33067;49.296;14.470;2022-08-21T04:38:24;96826.71;;;22.64;44.82
47080;BME280;33067;49.296;14.470;2022-08-21T04:40:51;96829.02;;;22.92;44.80
47080;BME280;33067;49.296;14.470;2022-08-21T04:43:16;96830.07;;;23.00;44.64
47080;BME280;33067;49.296;14.470;2022-08-21T04:45:43;96827.28;;;22.96;44.82
47080;BME280;33067;49.296;14.470;2022-08-21T04:48:09;96826.34;;;22.76;44.73
47080;BME280;33067;49.296;14.470;2022-08-21T04:50:37;96829.01;;;23.01;44.85
47080;BME280;33067;49.296;14.470;2022-08-21T04:53:02;96827.23;;;23.26;44.61
47080;BME280;33067;49.296;14.470;2022-08-21T04:55:23;96829.42;;;22.68;44.78
47080;BME280;33067;49.296;14.470;2022-08-21T04:57:48;96829.80;;;22.90;44.80
47080;BME280;33067;49.296;14.470;2022-08-21T05:00:14;96833.18;;;23.19;44.98
47080;BME280;33067;49.296;14.470;2022-08-21T05:02:39;96835.07;;;23.11;44.98
47080;BME280;33067;49.296;14.470;2022-08-21T05:05:06;96839.43;;;22.79;45.40
47080;BME280;33067;49.296;14.470;2022-08-21T05:07:31;96843.25;;;22.48;46.00
47080;BME280;33067;49.296;14.470;2022-08-21T05:09:56;96841.35;;;22.56;46.50
47080;BME280;33067;49.296;14.470;2022-08-21T05:12:21;96840.83;;;22.75;46.54
47080;BME280;33067;49.296;14.470;2022-08-21T05:14:47;96840.09;;;22.66;46.78
47080;BME280;33067;49.296;14.470;2022-08-21T05:17:12;96839.67;;;22.25;46.97
47080;BME280;33067;49.296;14.470;2022-08-21T05:19:37;96840.17;;;22.16;46.75
47080;BME280;33067;49.296;14.470;2022-08-21T05:22:03;96844.20;;;22.57;46.49
47080;BME280;33067;49.296;14.470;2022-08-21T05:24:28;96843.32;;;22.60;46.16
47080;BME280;33067;49.296;14.470;2022-08-21T05:26:53;96842.65;;;22.81;45.91
47080;BME280;33067;49.296;14.470;2022-08-21T05:29:19;96839.98;;;23.05;45.56
47080;BME280;33067;49.296;14.470;2022-08-21T05:31:45;96838.55;;;22.93;45.40
47080;BME280;33067;49.296;14.470;2022-08-21T05:34:09;96841.85;;;22.77;45.20
47080;BME280;33067;49.296;14.470;2022-08-21T05:36:34;96843.69;;;22.83;45.03
47080;BME280;33067;49.296;14.470;2022-08-21T05:39:05;96846.56;;;22.85;44.73
47080;BME280;33067;49.296;14.470;2022-08-21T05:41:25;96850.12;;;23.28;44.90
47080;BME280;33067;49.296;14.470;2022-08-21T05:43:50;96849.42;;;22.74;44.90
47080;BME280;33067;49.296;14.470;2022-08-21T05:46:18;96851.21;;;22.76;45.17
47080;BME280;33067;49.296;14.470;2022-08-21T05:48:41;96851.24;;;22.89;45.13
47080;BME280;33067;49.296;14.470;2022-08-21T05:51:08;96853.61;;;22.53;45.16
47080;BME280;33067;49.296;14.470;2022-08-21T05:53:38;96850.65;;;22.89;44.99
47080;BME280;33067;49.296;14.470;2022-08-21T05:55:57;96848.45;;;23.01;44.94
47080;BME280;33067;49.296;14.470;2022-08-21T05:58:22;96850.09;;;22.62;44.99
47080;BME280;33067;49.296;14.470;2022-08-21T06:00:49;96848.70;;;21.96;44.85
47080;BME280;33067;49.296;14.470;2022-08-21T06:03:15;96850.87;;;23.09;44.10
47080;BME280;33067;49.296;14.470;2022-08-21T06:05:39;96848.23;;;22.94;44.37
47080;BME280;33067;49.296;14.470;2022-08-21T06:08:04;96854.24;;;22.56;44.75
47080;BME280;33067;49.296;14.470;2022-08-21T06:10:30;96853.41;;;22.54;44.87
47080;BME280;33067;49.296;14.470;2022-08-21T06:12:54;96850.90;;;22.64;44.93
47080;BME280;33067;49.296;14.470;2022-08-21T06:15:21;96851.62;;;22.77;44.78
47080;BME280;33067;49.296;14.470;2022-08-21T06:17:47;96852.98;;;23.00;44.85
47080;BME280;33067;49.296;14.470;2022-08-21T06:20:12;96855.82;;;22.78;45.00
47080;BME280;33067;49.296;14.470;2022-08-21T06:22:37;96856.23;;;22.59;44.98
47080;BME280;33067;49.296;14.470;2022-08-21T06:25:03;96852.37;;;22.98;44.91
47080;BME280;33067;49.296;14.470;2022-08-21T06:27:28;96855.71;;;22.84;45.00
47080;BME280;33067;49.296;14.470;2022-08-21T06:29:54;96857.99;;;22.90;45.05
47080;BME280;33067;49.296;14.470;2022-08-21T06:32:19;96859.07;;;22.40;45.23
47080;BME280;33067;49.296;14.470;2022-08-21T06:34:44;96864.04;;;22.34;45.78
47080;BME280;33067;49.296;14.470;2022-08-21T06:37:10;96865.26;;;22.82;45.25
47080;BME280;33067;49.296;14.470;2022-08-21T06:39:35;96863.67;;;23.01;45.46
47080;BME280;33067;49.296;14.470;2022-08-21T06:42:00;96865.67;;;22.64;45.31
47080;BME280;33067;49.296;14.470;2022-08-21T06:44:25;96866.07;;;22.65;45.40
47080;BME280;33067;49.296;14.470;2022-08-21T06:46:50;96867.38;;;22.66;45.37
47080;BME280;33067;49.296;14.470;2022-08-21T06:49:16;96865.36;;;22.82;45.38
47080;BME280;33067;49.296;14.470;2022-08-21T06:51:42;96869.71;;;22.40;45.41
47080;BME280;33067;49.296;14.470;2022-08-21T06:54:07;96871.78;;;22.02;46.25
47080;BME280;33067;49.296;14.470;2022-08-21T06:56:32;96872.85;;;21.88;46.58
47080;BME280;33067;49.296;14.470;2022-08-21T06:58:57;96875.73;;;22.50;45.89
47080;BME280;33067;49.296;14.470;2022-08-21T07:01:25;96875.58;;;22.23;46.04
47080;BME280;33067;49.296;14.470;2022-08-21T07:03:47;96878.60;;;21.93;46.59
47080;BME280;33067;49.296;14.470;2022-08-21T07:06:12;96878.31;;;21.74;46.74
47080;BME280;33067;49.296;14.470;2022-08-21T07:08:43;96879.16;;;21.44;47.14
47080;BME280;33067;49.296;14.470;2022-08-21T07:11:09;96880.44;;;22.31;46.43
47080;BME280;33067;49.296;14.470;2022-08-21T07:13:30;96879.71;;;21.97;46.57
47080;BME280;33067;49.296;14.470;2022-08-21T07:15:54;96879.23;;;20.99;48.28
47080;BME280;33067;49.296;14.470;2022-08-21T07:18:19;96880.19;;;21.02;48.67
47080;BME280;33067;49.296;14.470;2022-08-21T07:20:44;96884.96;;;21.69;47.84
47080;BME280;33067;49.296;14.470;2022-08-21T07:23:11;96885.42;;;21.77;47.43
47080;BME280;33067;49.296;14.470;2022-08-21T07:25:34;96884.71;;;21.55;47.51
47080;BME280;33067;49.296;14.470;2022-08-21T07:27:59;96878.73;;;20.80;48.50
47080;BME280;33067;49.296;14.470;2022-08-21T07:30:24;96883.00;;;21.30;48.18
47080;BME280;33067;49.296;14.470;2022-08-21T07:32:49;96883.05;;;21.22;47.48
47080;BME280;33067;49.296;14.470;2022-08-21T07:35:15;96884.77;;;21.32;48.03
47080;BME280;33067;49.296;14.470;2022-08-21T07:37:40;96887.97;;;21.48;47.69
47080;BME280;33067;49.296;14.470;2022-08-21T07:40:06;96889.36;;;20.98;48.10
47080;BME280;33067;49.296;14.470;2022-08-21T07:42:31;96890.39;;;21.34;46.85
47080;BME280;33067;49.296;14.470;2022-08-21T07:44:57;96886.99;;;20.66;48.15
47080;BME280;33067;49.296;14.470;2022-08-21T07:47:22;96890.93;;;20.21;48.38
47080;BME280;33067;49.296;14.470;2022-08-21T07:49:48;96896.38;;;20.76;48.09
47080;BME280;33067;49.296;14.470;2022-08-21T07:52:13;96891.82;;;20.33;48.24
47080;BME280;33067;49.296;14.470;2022-08-21T07:54:39;96899.74;;;20.98;47.93
47080;BME280;33067;49.296;14.470;2022-08-21T07:57:04;96897.84;;;20.79;48.10
47080;BME280;33067;49.296;14.470;2022-08-21T07:59:30;96898.61;;;21.67;47.16
47080;BME280;33067;49.296;14.470;2022-08-21T08:01:55;96899.97;;;21.40;46.18
47080;BME280;33067;49.296;14.470;2022-08-21T08:04:20;96903.95;;;21.03;46.04
47080;BME280;33067;49.296;14.470;2022-08-21T08:06:46;96897.97;;;21.86;45.79
47080;BME280;33067;49.296;14.470;2022-08-21T08:09:12;96897.58;;;21.65;45.86
47080;BME280;33067;49.296;14.470;2022-08-21T08:11:39;96898.07;;;21.33;45.84
47080;BME280;33067;49.296;14.470;2022-08-21T08:14:02;96893.39;;;21.48;45.36
47080;BME280;33067;49.296;14.470;2022-08-21T08:16:28;96891.46;;;21.72;45.22
47080;BME280;33067;49.296;14.470;2022-08-21T08:18:53;96891.84;;;22.01;45.40
47080;BME280;33067;49.296;14.470;2022-08-21T08:21:18;96894.61;;;21.77;45.64
47080;BME280;33067;49.296;14.470;2022-08-21T08:23:43;96896.20;;;22.22;45.25
47080;BME280;33067;49.296;14.470;2022-08-21T08:26:08;96894.76;;;22.52;44.86
47080;BME280;33067;49.296;14.470;2022-08-21T08:28:34;96896.50;;;22.21;44.00
47080;BME280;33067;49.296;14.470;2022-08-21T08:31:00;96895.07;;;22.47;44.08
47080;BME280;33067;49.296;14.470;2022-08-21T08:33:25;96889.93;;;22.18;44.08
47080;BME280;33067;49.296;14.470;2022-08-21T08:35:51;96893.29;;;20.35;47.07
47080;BME280;33067;49.296;14.470;2022-08-21T08:38:16;96895.62;;;20.65;46.39
47080;BME280;33067;49.296;14.470;2022-08-21T08:40:44;96896.79;;;21.39;45.55
47080;BME280;33067;49.296;14.470;2022-08-21T08:43:05;96897.51;;;21.22;46.07
47080;BME280;33067;49.296;14.470;2022-08-21T08:45:32;96898.51;;;21.82;45.08
47080;BME280;33067;49.296;14.470;2022-08-21T08:48:00;96894.10;;;21.75;45.14
47080;BME280;33067;49.296;14.470;2022-08-21T08:50:25;96890.90;;;21.94;44.02
47080;BME280;33067;49.296;14.470;2022-08-21T08:52:49;96890.50;;;22.31;43.97
47080;BME280;33067;49.296;14.470;2022-08-21T08:55:15;96890.35;;;22.17;43.67
47080;BME280;33067;49.296;14.470;2022-08-21T08:57:37;96882.88;;;23.06;43.45
47080;BME280;33067;49.296;14.470;2022-08-21T09:00:05;96882.40;;;22.99;43.23
47080;BME280;33067;49.296;14.470;2022-08-21T09:02:27;96885.79;;;23.01;43.08
47080;BME280;33067;49.296;14.470;2022-08-21T09:04:54;96894.17;;;21.46;44.38
47080;BME280;33067;49.296;14.470;2022-08-21T09:07:28;96892.74;;;22.44;43.59
47080;BME280;33067;49.296;14.470;2022-08-21T09:10:03;96898.71;;;22.17;43.44
47080;BME280;33067;49.296;14.470;2022-08-21T09:12:28;96902.07;;;21.95;44.20
47080;BME280;33067;49.296;14.470;2022-08-21T09:14:47;96902.69;;;22.81;43.24
47080;BME280;33067;49.296;14.470;2022-08-21T09:17:14;96896.90;;;23.11;42.44
47080;BME280;33067;49.296;14.470;2022-08-21T09:19:39;96901.24;;;22.03;43.08
47080;BME280;33067;49.296;14.470;2022-08-21T09:22:07;96899.78;;;21.93;42.82
47080;BME280;33067;49.296;14.470;2022-08-21T09:24:28;96906.72;;;21.50;43.85
47080;BME280;33067;49.296;14.470;2022-08-21T09:26:53;96903.10;;;22.25;43.31
47080;BME280;33067;49.296;14.470;2022-08-21T09:29:11;96900.93;;;23.06;42.89
47080;BME280;33067;49.296;14.470;2022-08-21T09:31:36;96900.04;;;22.72;42.59
47080;BME280;33067;49.296;14.470;2022-08-21T09:34:04;96899.43;;;22.70;42.08
47080;BME280;33067;49.296;14.470;2022-08-21T09:36:34;96901.45;;;22.07;43.06
47080;BME280;33067;49.296;14.470;2022-08-21T09:38:53;96899.75;;;22.98;41.08
47080;BME280;33067;49.296;14.470;2022-08-21T09:41:26;96902.75;;;22.67;42.31
47080;BME280;33067;49.296;14.470;2022-08-21T09:43:52;96899.63;;;22.18;41.94
47080;BME280;33067;49.296;14.470;2022-08-21T09:46:11;96894.97;;;22.77;41.67
47080;BME280;33067;49.296;14.470;2022-08-21T09:48:40;96895.56;;;22.27;41.44
47080;BME280;33067;49.296;14.470;2022-08-21T09:51:06;96898.27;;;21.91;41.95
47080;BME280;33067;49.296;14.470;2022-08-21T09:53:27;96896.70;;;22.54;40.43
47080;BME280;33067;49.296;14.470;2022-08-21T09:55:53;96892.82;;;22.59;41.32
47080;BME280;33067;49.296;14.470;2022-08-21T09:58:15;96889.50;;;22.12;40.49
47080;BME280;33067;49.296;14.470;2022-08-21T10:00:40;96886.96;;;22.34;40.78
47080;BME280;33067;49.296;14.470;2022-08-21T10:03:11;96887.09;;;22.77;40.93
47080;BME280;33067;49.296;14.470;2022-08-21T10:05:30;96886.43;;;22.80;40.38
47080;BME280;33067;49.296;14.470;2022-08-21T10:07:56;96888.56;;;23.02;40.14
47080;BME280;33067;49.296;14.470;2022-08-21T10:10:23;96893.49;;;22.17;40.75
47080;BME280;33067;49.296;14.470;2022-08-21T10:12:53;96886.06;;;23.00;40.06
47080;BME280;33067;49.296;14.470;2022-08-21T10:15:19;96892.29;;;21.98;41.71
47080;BME280;33067;49.296;14.470;2022-08-21T10:17:44;96886.47;;;23.41;40.05
47080;BME280;33067;49.296;14.470;2022-08-21T10:20:09;96889.67;;;22.99;39.56
47080;BME280;33067;49.296;14.470;2022-08-21T10:22:36;96895.13;;;22.51;41.08
47080;BME280;33067;49.296;14.470;2022-08-21T10:25:07;96889.79;;;23.09;40.04
47080;BME280;33067;49.296;14.470;2022-08-21T10:27:27;96887.90;;;23.34;40.13
47080;BME280;33067;49.296;14.470;2022-08-21T10:29:53;96890.22;;;23.46;39.58
47080;BME280;33067;49.296;14.470;2022-08-21T10:32:21;96887.65;;;23.55;39.05
47080;BME280;33067;49.296;14.470;2022-08-21T10:34:44;96889.26;;;23.05;40.40
47080;BME280;33067;49.296;14.470;2022-08-21T10:37:15;96889.30;;;22.39;40.87
47080;BME280;33067;49.296;14.470;2022-08-21T10:39:33;96886.22;;;22.77;40.94
47080;BME280;33067;49.296;14.470;2022-08-21T10:42:14;96877.38;;;23.28;40.30
47080;BME280;33067;49.296;14.470;2022-08-21T10:44:29;96871.29;;;23.00;39.90
47080;BME280;33067;49.296;14.470;2022-08-21T10:46:50;96869.44;;;22.98;40.00
47080;BME280;33067;49.296;14.470;2022-08-21T10:49:20;96867.24;;;23.27;40.24
47080;BME280;33067;49.296;14.470;2022-08-21T10:51:42;96866.29;;;22.96;40.61
47080;BME280;33067;49.296;14.470;2022-08-21T10:54:07;96865.52;;;22.80;41.08
47080;BME280;33067;49.296;14.470;2022-08-21T10:56:31;96865.19;;;23.42;39.52
47080;BME280;33067;49.296;14.470;2022-08-21T10:59:04;96862.08;;;23.62;39.03
47080;BME280;33067;49.296;14.470;2022-08-21T11:01:25;96863.56;;;23.48;39.21
47080;BME280;33067;49.296;14.470;2022-08-21T11:03:48;96853.10;;;23.57;38.91
47080;BME280;33067;49.296;14.470;2022-08-21T11:06:14;96850.69;;;24.99;38.20
47080;BME280;33067;49.296;14.470;2022-08-21T11:08:40;96853.94;;;24.45;38.03
47080;BME280;33067;49.296;14.470;2022-08-21T11:11:06;96855.61;;;24.13;38.10
47080;BME280;33067;49.296;14.470;2022-08-21T11:13:35;96848.46;;;25.07;37.10
47080;BME280;33067;49.296;14.470;2022-08-21T11:16:00;96850.18;;;25.07;36.65
47080;BME280;33067;49.296;14.470;2022-08-21T11:18:24;96850.54;;;25.89;36.39
47080;BME280;33067;49.296;14.470;2022-08-21T11:20:56;96852.92;;;25.91;36.06
47080;BME280;33067;49.296;14.470;2022-08-21T11:23:16;96854.94;;;25.62;36.07
47080;BME280;33067;49.296;14.470;2022-08-21T11:25:40;96855.86;;;25.88;36.25
47080;BME280;33067;49.296;14.470;2022-08-21T11:28:08;96852.18;;;25.51;36.38
47080;BME280;33067;49.296;14.470;2022-08-21T11:30:38;96850.20;;;26.21;35.51
47080;BME280;33067;49.296;14.470;2022-08-21T11:33:06;96846.85;;;24.49;35.82
47080;BME280;33067;49.296;14.470;2022-08-21T11:35:31;96843.17;;;27.04;33.95
47080;BME280;33067;49.296;14.470;2022-08-21T11:37:54;96843.19;;;26.10;34.32
47080;BME280;33067;49.296;14.470;2022-08-21T11:40:20;96844.30;;;25.42;35.93
47080;BME280;33067;49.296;14.470;2022-08-21T11:42:42;96844.80;;;25.67;35.92
47080;BME280;33067;49.296;14.470;2022-08-21T11:45:14;96835.49;;;25.64;35.99
47080;BME280;33067;49.296;14.470;2022-08-21T11:47:37;96827.55;;;25.47;35.95
47080;BME280;33067;49.296;14.470;2022-08-21T11:50:06;96825.65;;;25.99;35.37
47080;BME280;33067;49.296;14.470;2022-08-21T11:52:24;96820.79;;;25.92;35.61
47080;BME280;33067;49.296;14.470;2022-08-21T11:54:51;96821.55;;;26.37;35.16
47080;BME280;33067;49.296;14.470;2022-08-21T11:57:18;96819.36;;;26.57;33.78
47080;BME280;33067;49.296;14.470;2022-08-21T11:59:42;96819.40;;;25.28;34.71
47080;BME280;33067;49.296;14.470;2022-08-21T12:02:09;96818.92;;;25.31;35.01
47080;BME280;33067;49.296;14.470;2022-08-21T12:04:34;96822.20;;;25.91;34.46
47080;BME280;33067;49.296;14.470;2022-08-21T12:06:56;96820.91;;;25.16;35.29
47080;BME280;33067;49.296;14.470;2022-08-21T12:09:32;96818.21;;;24.69;36.28
47080;BME280;33067;49.296;14.470;2022-08-21T12:11:48;96817.81;;;24.45;36.22
47080;BME280;33067;49.296;14.470;2022-08-21T12:14:14;96812.71;;;24.32;36.74
47080;BME280;33067;49.296;14.470;2022-08-21T12:16:40;96810.95;;;25.46;35.29
47080;BME280;33067;49.296;14.470;2022-08-21T12:19:06;96805.45;;;25.63;35.13
47080;BME280;33067;49.296;14.470;2022-08-21T12:21:29;96807.98;;;26.12;35.23
47080;BME280;33067;49.296;14.470;2022-08-21T12:24:04;96804.46;;;26.84;34.12
47080;BME280;33067;49.296;14.470;2022-08-21T12:26:25;96807.45;;;25.46;33.91
47080;BME280;33067;49.296;14.470;2022-08-21T12:28:46;96805.41;;;25.87;33.41
47080;BME280;33067;49.296;14.470;2022-08-21T12:31:19;96800.87;;;25.83;34.12
47080;BME280;33067;49.296;14.470;2022-08-21T12:33:39;96800.45;;;25.20;35.04
47080;BME280;33067;49.296;14.470;2022-08-21T12:36:09;96799.34;;;25.00;34.95
47080;BME280;33067;49.296;14.470;2022-08-21T12:38:33;96798.74;;;24.60;36.50
47080;BME280;33067;49.296;14.470;2022-08-21T12:40:57;96804.76;;;24.24;36.51